sensor_id;sensor_type;location;lat;lon;timestamp;pressure;altitude;pressure_sealevel;temperature;humidity
7768;BME280;3928;42.626;23.382;2022-12-24T00:00:55;94035.00;;;6.43;84.97
7768;BME280;3928;42.626;23.382;2022-12-24T00:03:22;94033.25;;;6.49;84.35
7768;BME280;3928;42.626;23.382;2022-12-24T00:05:51;94031.53;;;6.51;84.28
7768;BME280;3928;42.626;23.382;2022-12-24T00:08:18;94023.94;;;6.48;83.55
7768;BME280;3928;42.626;23.382;2022-12-24T00:10:48;94009.53;;;6.40;83.33
7768;BME280;3928;42.626;23.382;2022-12-24T00:13:15;94020.53;;;6.47;83.53
7768;BME280;3928;42.626;23.382;2022-12-24T00:15:42;94025.66;;;6.44;83.73
7768;BME280;3928;42.626;23.382;2022-12-24T00:18:09;94023.97;;;6.43;83.98
7768;BME280;3928;42.626;23.382;2022-12-24T00:20:36;94022.25;;;6.43;84.05
7768;BME280;3928;42.626;23.382;2022-12-24T00:23:04;94020.53;;;6.47;83.51
7768;BME280;3928;42.626;23.382;2022-12-24T00:25:31;94029.84;;;6.50;83.59
7768;BME280;3928;42.626;23.382;2022-12-24T00:27:58;94028.16;;;6.52;83.39
7768;BME280;3928;42.626;23.382;2022-12-24T00:30:24;94031.53;;;6.51;83.05
7768;BME280;3928;42.626;23.382;2022-12-24T00:32:51;94024.81;;;6.42;83.11
7768;BME280;3928;42.626;23.382;2022-12-24T00:35:18;94031.69;;;6.23;83.15
7768;BME280;3928;42.626;23.382;2022-12-24T00:37:46;94019.91;;;6.01;84.58
7768;BME280;3928;42.626;23.382;2022-12-24T00:40:15;94023.34;;;5.78;86.34
7768;BME280;3928;42.626;23.382;2022-12-24T00:42:41;94026.81;;;5.51;87.91
7768;BME280;3928;42.626;23.382;2022-12-24T00:45:09;94024.28;;;5.51;88.07
7768;BME280;3928;42.626;23.382;2022-12-24T00:47:36;94024.28;;;5.45;88.43
7768;BME280;3928;42.626;23.382;2022-12-24T00:50:04;94024.28;;;5.30;89.10
7768;BME280;3928;42.626;23.382;2022-12-24T00:52:31;94004.81;;;5.18;90.36
7768;BME280;3928;42.626;23.382;2022-12-24T00:54:58;94031.09;;;5.23;90.45
7768;BME280;3928;42.626;23.382;2022-12-24T00:57:26;94033.66;;;5.10;91.11
7768;BME280;3928;42.626;23.382;2022-12-24T00:59:52;94034.50;;;5.21;91.43
7768;BME280;3928;42.626;23.382;2022-12-24T01:02:19;94027.72;;;5.15;91.28
7768;BME280;3928;42.626;23.382;2022-12-24T01:04:46;94025.16;;;5.18;91.26
7768;BME280;3928;42.626;23.382;2022-12-24T01:07:31;94044.66;;;5.28;90.97
7768;BME280;3928;42.626;23.382;2022-12-24T01:09:57;94031.94;;;5.33;90.88
7768;BME280;3928;42.626;23.382;2022-12-24T01:12:26;94026.84;;;5.28;90.73
7768;BME280;3928;42.626;23.382;2022-12-24T01:14:52;94035.34;;;5.14;91.76
7768;BME280;3928;42.626;23.382;2022-12-24T01:17:19;93983.66;;;4.90;92.07
7768;BME280;3928;42.626;23.382;2022-12-24T01:19:46;94027.69;;;5.27;91.90
7768;BME280;3928;42.626;23.382;2022-12-24T01:22:13;94026.84;;;5.28;91.98
7768;BME280;3928;42.626;23.382;2022-12-24T01:24:40;94033.63;;;5.36;92.58
7768;BME280;3928;42.626;23.382;2022-12-24T01:27:07;94014.97;;;5.31;92.72
7768;BME280;3928;42.626;23.382;2022-12-24T01:29:35;94018.31;;;5.63;91.02
7768;BME280;3928;42.626;23.382;2022-12-24T01:32:02;94017.41;;;5.76;90.91
7768;BME280;3928;42.626;23.382;2022-12-24T01:34:29;94023.34;;;5.84;89.59
7768;BME280;3928;42.626;23.382;2022-12-24T01:36:56;94017.38;;;5.92;87.70
7768;BME280;3928;42.626;23.382;2022-12-24T01:39:23;94020.69;;;6.18;86.70
7768;BME280;3928;42.626;23.382;2022-12-24T01:41:49;94007.13;;;6.16;85.44
7768;BME280;3928;42.626;23.382;2022-12-24T01:44:39;94034.25;;;6.28;84.07
7768;BME280;3928;42.626;23.382;2022-12-24T01:47:08;94034.22;;;6.32;84.18
7768;BME280;3928;42.626;23.382;2022-12-24T01:49:38;93989.34;;;6.01;84.08
7768;BME280;3928;42.626;23.382;2022-12-24T01:52:08;94034.22;;;6.26;84.88
7768;BME280;3928;42.626;23.382;2022-12-24T01:54:39;94024.13;;;6.09;85.57
7768;BME280;3928;42.626;23.382;2022-12-24T01:57:10;94017.38;;;5.99;86.55
7768;BME280;3928;42.626;23.382;2022-12-24T01:59:43;94028.44;;;5.81;86.29
7768;BME280;3928;42.626;23.382;2022-12-24T02:02:12;94034.41;;;5.80;86.98
7768;BME280;3928;42.626;23.382;2022-12-24T02:04:42;94030.19;;;5.70;87.70
7768;BME280;3928;42.626;23.382;2022-12-24T02:07:11;94019.13;;;5.71;87.76
7768;BME280;3928;42.626;23.382;2022-12-24T02:09:38;94018.28;;;5.74;88.04
7768;BME280;3928;42.626;23.382;2022-12-24T02:12:06;94013.19;;;5.75;86.71
7768;BME280;3928;42.626;23.382;2022-12-24T02:14:34;94008.06;;;5.81;86.40
7768;BME280;3928;42.626;23.382;2022-12-24T02:17:08;94004.63;;;5.88;86.29
7768;BME280;3928;42.626;23.382;2022-12-24T02:23:03;94024.16;;;5.99;85.40
7768;BME280;3928;42.626;23.382;2022-12-24T02:25:43;94008.03;;;5.97;86.47
7768;BME280;3928;42.626;23.382;2022-12-24T02:28:29;94018.19;;;6.09;87.09
7768;BME280;3928;42.626;23.382;2022-12-24T02:31:06;94027.47;;;6.14;85.51
7768;BME280;3928;42.626;23.382;2022-12-24T02:33:38;94022.38;;;6.22;84.87
7768;BME280;3928;42.626;23.382;2022-12-24T02:36:13;94023.19;;;6.24;84.59
7768;BME280;3928;42.626;23.382;2022-12-24T02:38:44;94025.75;;;6.23;84.04
7768;BME280;3928;42.626;23.382;2022-12-24T02:41:16;94022.38;;;6.19;83.84
7768;BME280;3928;42.626;23.382;2022-12-24T02:43:45;94012.22;;;6.11;84.66
7768;BME280;3928;42.626;23.382;2022-12-24T02:46:19;94012.22;;;6.10;84.56
7768;BME280;3928;42.626;23.382;2022-12-24T02:48:48;94016.47;;;6.09;83.86
7768;BME280;3928;42.626;23.382;2022-12-24T02:51:15;94019.06;;;6.05;84.30
7768;BME280;3928;42.626;23.382;2022-12-24T02:53:42;94013.09;;;6.06;84.25
7768;BME280;3928;42.626;23.382;2022-12-24T02:56:22;94002.94;;;6.00;83.04
7768;BME280;3928;42.626;23.382;2022-12-24T02:59:08;94001.22;;;5.90;84.43
7768;BME280;3928;42.626;23.382;2022-12-24T03:01:44;93953.00;;;5.53;84.37
7768;BME280;3928;42.626;23.382;2022-12-24T03:04:21;94002.13;;;5.82;84.40
7768;BME280;3928;42.626;23.382;2022-12-24T03:07:06;94005.50;;;5.84;86.04
7768;BME280;3928;42.626;23.382;2022-12-24T03:09:50;94002.97;;;5.86;85.62
7768;BME280;3928;42.626;23.382;2022-12-24T03:12:21;94013.16;;;5.94;85.30
7768;BME280;3928;42.626;23.382;2022-12-24T03:14:50;94003.78;;;5.97;84.22
7768;BME280;3928;42.626;23.382;2022-12-24T03:17:18;93997.84;;;6.00;83.28
7768;BME280;3928;42.626;23.382;2022-12-24T03:19:46;93991.03;;;6.02;83.63
7768;BME280;3928;42.626;23.382;2022-12-24T03:22:15;93996.13;;;6.05;83.52
7768;BME280;3928;42.626;23.382;2022-12-24T03:24:43;94007.16;;;6.08;83.29
7768;BME280;3928;42.626;23.382;2022-12-24T03:27:10;94012.25;;;6.05;83.01
7768;BME280;3928;42.626;23.382;2022-12-24T03:29:38;94006.38;;;5.94;83.45
7768;BME280;3928;42.626;23.382;2022-12-24T03:32:06;94004.66;;;5.92;83.79
7768;BME280;3928;42.626;23.382;2022-12-24T03:34:34;94009.75;;;5.92;84.25
7768;BME280;3928;42.626;23.382;2022-12-24T03:37:02;94002.97;;;5.94;84.61
7768;BME280;3928;42.626;23.382;2022-12-24T03:39:29;93999.56;;;5.95;83.36
7768;BME280;3928;42.626;23.382;2022-12-24T03:41:55;93992.78;;;5.94;83.87
7768;BME280;3928;42.626;23.382;2022-12-24T03:44:22;93999.53;;;6.01;83.39
7768;BME280;3928;42.626;23.382;2022-12-24T03:46:49;94004.63;;;6.01;82.66
7768;BME280;3928;42.626;23.382;2022-12-24T03:49:16;93999.56;;;5.98;82.37
7768;BME280;3928;42.626;23.382;2022-12-24T03:51:44;93991.94;;;5.93;83.16
7768;BME280;3928;42.626;23.382;2022-12-24T03:54:11;94002.94;;;5.97;82.99
7768;BME280;3928;42.626;23.382;2022-12-24T03:56:37;94007.19;;;5.98;82.98
7768;BME280;3928;42.626;23.382;2022-12-24T03:59:04;94007.19;;;5.99;82.72
7768;BME280;3928;42.626;23.382;2022-12-24T04:01:31;94008.84;;;6.03;82.43
7768;BME280;3928;42.626;23.382;2022-12-24T04:03:58;94017.38;;;5.99;81.95
7768;BME280;3928;42.626;23.382;2022-12-24T04:06:24;94018.22;;;5.97;82.89
7768;BME280;3928;42.626;23.382;2022-12-24T04:08:53;94018.22;;;6.00;82.83
7768;BME280;3928;42.626;23.382;2022-12-24T04:11:19;94021.59;;;6.02;82.44
7768;BME280;3928;42.626;23.382;2022-12-24T04:13:46;94013.13;;;5.87;82.89
7768;BME280;3928;42.626;23.382;2022-12-24T04:16:15;94001.31;;;5.70;82.89
7768;BME280;3928;42.626;23.382;2022-12-24T04:18:43;94019.13;;;5.76;82.56
7768;BME280;3928;42.626;23.382;2022-12-24T04:21:10;94030.16;;;5.75;82.69
7768;BME280;3928;42.626;23.382;2022-12-24T04:23:39;94018.31;;;5.63;83.52
7768;BME280;3928;42.626;23.382;2022-12-24T04:26:09;94027.66;;;5.52;83.90
7768;BME280;3928;42.626;23.382;2022-12-24T04:28:37;94025.13;;;5.49;85.03
7768;BME280;3928;42.626;23.382;2022-12-24T04:31:07;94017.50;;;5.49;84.99
7768;BME280;3928;42.626;23.382;2022-12-24T04:33:35;94037.00;;;5.57;84.60
7768;BME280;3928;42.626;23.382;2022-12-24T04:36:04;94036.97;;;5.54;84.96
7768;BME280;3928;42.626;23.382;2022-12-24T04:38:32;94038.69;;;5.54;84.17
7768;BME280;3928;42.626;23.382;2022-12-24T04:40:59;94037.84;;;5.56;83.45
7768;BME280;3928;42.626;23.382;2022-12-24T04:43:28;94054.00;;;5.45;84.09
7768;BME280;3928;42.626;23.382;2022-12-24T04:45:55;94047.22;;;5.22;84.76
7768;BME280;3928;42.626;23.382;2022-12-24T04:48:22;94057.38;;;5.19;85.45
7768;BME280;3928;42.626;23.382;2022-12-24T04:50:49;94061.63;;;5.19;85.10
7768;BME280;3928;42.626;23.382;2022-12-24T04:53:16;94058.25;;;5.12;85.14
7768;BME280;3928;42.626;23.382;2022-12-24T04:55:44;94036.19;;;5.02;86.14
7768;BME280;3928;42.626;23.382;2022-12-24T04:58:11;94055.69;;;5.21;86.37
7768;BME280;3928;42.626;23.382;2022-12-24T05:00:39;94053.97;;;5.20;86.03
7768;BME280;3928;42.626;23.382;2022-12-24T05:03:06;94051.44;;;5.05;87.48
7768;BME280;3928;42.626;23.382;2022-12-24T05:05:33;94043.81;;;5.14;87.81
7768;BME280;3928;42.626;23.382;2022-12-24T05:08:00;94054.84;;;5.10;90.09
7768;BME280;3928;42.626;23.382;2022-12-24T05:10:26;94026.88;;;5.04;90.26
7768;BME280;3928;42.626;23.382;2022-12-24T05:12:53;94043.84;;;5.22;91.69
7768;BME280;3928;42.626;23.382;2022-12-24T05:15:20;94021.78;;;5.25;90.16
7768;BME280;3928;42.626;23.382;2022-12-24T05:17:48;94019.22;;;5.25;90.26
7768;BME280;3928;42.626;23.382;2022-12-24T05:20:15;94026.00;;;5.39;89.29
7768;BME280;3928;42.626;23.382;2022-12-24T05:22:42;94017.50;;;5.47;88.69
7768;BME280;3928;42.626;23.382;2022-12-24T05:25:38;94014.97;;;5.46;87.65
7768;BME280;3928;42.626;23.382;2022-12-24T05:28:22;94011.53;;;5.53;87.12
7768;BME280;3928;42.626;23.382;2022-12-24T05:30:49;94014.06;;;5.56;86.49
7768;BME280;3928;42.626;23.382;2022-12-24T05:33:17;94014.94;;;5.58;86.21
7768;BME280;3928;42.626;23.382;2022-12-24T05:35:44;94014.97;;;5.46;85.56
7768;BME280;3928;42.626;23.382;2022-12-24T05:38:11;94020.03;;;5.49;86.42
7768;BME280;3928;42.626;23.382;2022-12-24T05:40:38;94020.88;;;5.51;87.23
7768;BME280;3928;42.626;23.382;2022-12-24T05:43:04;93998.81;;;5.44;86.71
7768;BME280;3928;42.626;23.382;2022-12-24T05:45:31;94007.28;;;5.53;86.85
7768;BME280;3928;42.626;23.382;2022-12-24T05:47:58;94008.13;;;5.55;87.96
7768;BME280;3928;42.626;23.382;2022-12-24T05:50:26;94013.22;;;5.60;87.24
7768;BME280;3928;42.626;23.382;2022-12-24T05:52:53;94009.81;;;5.61;87.15
7768;BME280;3928;42.626;23.382;2022-12-24T05:55:20;94006.41;;;5.71;87.43
7768;BME280;3928;42.626;23.382;2022-12-24T05:57:46;94008.94;;;5.73;87.07
7768;BME280;3928;42.626;23.382;2022-12-24T06:00:14;93980.94;;;5.68;86.75
7768;BME280;3928;42.626;23.382;2022-12-24T06:02:41;94003.84;;;5.68;86.93
7768;BME280;3928;42.626;23.382;2022-12-24T06:05:08;94008.94;;;5.67;87.17
7768;BME280;3928;42.626;23.382;2022-12-24T06:07:36;94016.59;;;5.65;86.81
7768;BME280;3928;42.626;23.382;2022-12-24T06:10:04;94020.00;;;5.70;85.75
7768;BME280;3928;42.626;23.382;2022-12-24T06:12:31;94028.47;;;5.69;84.52
7768;BME280;3928;42.626;23.382;2022-12-24T06:14:58;94025.09;;;5.61;83.65
7768;BME280;3928;42.626;23.382;2022-12-24T06:17:25;94021.75;;;5.35;84.33
7768;BME280;3928;42.626;23.382;2022-12-24T06:19:51;94033.66;;;5.23;85.60
7768;BME280;3928;42.626;23.382;2022-12-24T06:22:18;94037.03;;;5.07;86.14
7768;BME280;3928;42.626;23.382;2022-12-24T06:24:46;94035.34;;;5.06;87.21
7768;BME280;3928;42.626;23.382;2022-12-24T06:27:13;94033.63;;;4.72;87.99
7768;BME280;3928;42.626;23.382;2022-12-24T06:29:40;94041.22;;;4.58;88.74
7768;BME280;3928;42.626;23.382;2022-12-24T06:32:07;94039.53;;;4.57;88.92
7768;BME280;3928;42.626;23.382;2022-12-24T06:34:33;94053.97;;;4.62;89.24
7768;BME280;3928;42.626;23.382;2022-12-24T06:37:00;94053.13;;;4.69;89.50
7768;BME280;3928;42.626;23.382;2022-12-24T06:39:28;94053.13;;;4.82;89.45
7768;BME280;3928;42.626;23.382;2022-12-24T06:41:56;94069.25;;;4.93;88.40
7768;BME280;3928;42.626;23.382;2022-12-24T06:44:23;94035.31;;;4.85;89.01
7768;BME280;3928;42.626;23.382;2022-12-24T06:46:50;94038.75;;;4.99;87.80
7768;BME280;3928;42.626;23.382;2022-12-24T06:49:17;94076.88;;;5.13;87.34
7768;BME280;3928;42.626;23.382;2022-12-24T06:51:44;94068.41;;;5.15;87.55
7768;BME280;3928;42.626;23.382;2022-12-24T06:54:11;94056.56;;;5.11;87.25
7768;BME280;3928;42.626;23.382;2022-12-24T06:56:38;94063.34;;;5.21;87.27
7768;BME280;3928;42.626;23.382;2022-12-24T06:59:06;94072.66;;;5.35;86.88
7768;BME280;3928;42.626;23.382;2022-12-24T07:01:33;94073.50;;;5.24;87.48
7768;BME280;3928;42.626;23.382;2022-12-24T07:03:59;94070.94;;;5.27;87.32
7768;BME280;3928;42.626;23.382;2022-12-24T07:06:28;94069.25;;;5.36;89.50
7768;BME280;3928;42.626;23.382;2022-12-24T07:08:55;94070.06;;;5.56;91.34
7768;BME280;3928;42.626;23.382;2022-12-24T07:11:22;94066.63;;;5.80;92.12
7768;BME280;3928;42.626;23.382;2022-12-24T07:13:50;94050.47;;;6.04;92.32
7768;BME280;3928;42.626;23.382;2022-12-24T07:16:18;94067.31;;;6.41;89.45
7768;BME280;3928;42.626;23.382;2022-12-24T07:18:45;94068.03;;;6.62;85.63
7768;BME280;3928;42.626;23.382;2022-12-24T07:21:12;94069.72;;;6.67;82.36
7768;BME280;3928;42.626;23.382;2022-12-24T07:23:39;94067.19;;;6.61;81.61
7768;BME280;3928;42.626;23.382;2022-12-24T07:26:06;94068.94;;;6.49;82.17
7768;BME280;3928;42.626;23.382;2022-12-24T07:28:33;94066.44;;;6.38;83.58
7768;BME280;3928;42.626;23.382;2022-12-24T07:31:00;94075.88;;;6.19;84.42
7768;BME280;3928;42.626;23.382;2022-12-24T07:33:28;94070.81;;;6.13;85.45
7768;BME280;3928;42.626;23.382;2022-12-24T07:36:00;94069.06;;;6.24;85.69
7768;BME280;3928;42.626;23.382;2022-12-24T07:38:27;94067.34;;;6.29;85.33
7768;BME280;3928;42.626;23.382;2022-12-24T07:40:54;94063.91;;;6.42;85.06
7768;BME280;3928;42.626;23.382;2022-12-24T07:43:21;94076.63;;;6.45;84.45
7768;BME280;3928;42.626;23.382;2022-12-24T07:45:48;94075.78;;;6.42;84.91
7768;BME280;3928;42.626;23.382;2022-12-24T07:48:15;94076.59;;;6.50;85.04
7768;BME280;3928;42.626;23.382;2022-12-24T07:50:43;94078.22;;;6.62;84.57
7768;BME280;3928;42.626;23.382;2022-12-24T07:53:10;94082.41;;;6.72;84.15
7768;BME280;3928;42.626;23.382;2022-12-24T07:55:37;94072.13;;;6.89;83.90
7768;BME280;3928;42.626;23.382;2022-12-24T07:58:04;94050.91;;;6.82;82.96
7768;BME280;3928;42.626;23.382;2022-12-24T08:00:30;94083.97;;;7.00;82.52
7768;BME280;3928;42.626;23.382;2022-12-24T08:02:57;94090.72;;;7.04;82.35
7768;BME280;3928;42.626;23.382;2022-12-24T08:05:24;94087.38;;;6.99;83.59
7768;BME280;3928;42.626;23.382;2022-12-24T08:07:53;94092.38;;;7.10;83.34
7768;BME280;3928;42.626;23.382;2022-12-24T08:10:20;94094.88;;;7.22;83.34
7768;BME280;3928;42.626;23.382;2022-12-24T08:12:47;94095.66;;;7.29;82.96
7768;BME280;3928;42.626;23.382;2022-12-24T08:15:14;94098.09;;;7.44;83.14
7768;BME280;3928;42.626;23.382;2022-12-24T08:17:41;94091.16;;;7.57;82.64
7768;BME280;3928;42.626;23.382;2022-12-24T08:20:08;94106.31;;;7.78;82.78
7768;BME280;3928;42.626;23.382;2022-12-24T08:22:35;94117.22;;;7.97;82.51
7768;BME280;3928;42.626;23.382;2022-12-24T08:25:04;94115.38;;;8.08;82.13
7768;BME280;3928;42.626;23.382;2022-12-24T08:27:31;94106.56;;;8.37;80.57
7768;BME280;3928;42.626;23.382;2022-12-24T08:29:57;94107.19;;;8.57;80.28
7768;BME280;3928;42.626;23.382;2022-12-24T08:32:24;94103.16;;;8.38;80.30
7768;BME280;3928;42.626;23.382;2022-12-24T08:34:51;94106.53;;;8.43;79.94
7768;BME280;3928;42.626;23.382;2022-12-24T08:37:18;94107.50;;;8.30;81.04
7768;BME280;3928;42.626;23.382;2022-12-24T08:39:45;94098.84;;;8.44;80.99
7768;BME280;3928;42.626;23.382;2022-12-24T08:42:13;94093.63;;;8.54;80.42
7768;BME280;3928;42.626;23.382;2022-12-24T08:44:40;94088.53;;;8.49;79.94
7768;BME280;3928;42.626;23.382;2022-12-24T08:47:06;94097.88;;;8.53;79.97
7768;BME280;3928;42.626;23.382;2022-12-24T08:49:33;94082.56;;;8.50;80.39
7768;BME280;3928;42.626;23.382;2022-12-24T08:52:00;94089.19;;;8.63;80.37
7768;BME280;3928;42.626;23.382;2022-12-24T08:54:27;94070.47;;;8.64;79.23
7768;BME280;3928;42.626;23.382;2022-12-24T08:56:53;94080.44;;;8.83;79.21
7768;BME280;3928;42.626;23.382;2022-12-24T08:59:22;94083.09;;;8.76;78.79
7768;BME280;3928;42.626;23.382;2022-12-24T09:01:48;94039.22;;;8.39;78.50
7768;BME280;3928;42.626;23.382;2022-12-24T09:04:15;94091.91;;;8.53;79.63
7768;BME280;3928;42.626;23.382;2022-12-24T09:06:42;94093.63;;;8.50;80.74
7768;BME280;3928;42.626;23.382;2022-12-24T09:09:09;94093.53;;;8.58;80.12
7768;BME280;3928;42.626;23.382;2022-12-24T09:11:35;94103.66;;;8.67;80.73
7768;BME280;3928;42.626;23.382;2022-12-24T09:14:02;94060.25;;;8.61;79.89
7768;BME280;3928;42.626;23.382;2022-12-24T09:16:30;94090.63;;;8.86;79.78
7768;BME280;3928;42.626;23.382;2022-12-24T09:18:57;94075.13;;;8.95;79.60
7768;BME280;3928;42.626;23.382;2022-12-24T09:21:24;94091.09;;;9.14;79.13
7768;BME280;3928;42.626;23.382;2022-12-24T09:23:51;94086.69;;;9.22;77.77
7768;BME280;3928;42.626;23.382;2022-12-24T09:26:20;94084.03;;;9.28;77.58
7768;BME280;3928;42.626;23.382;2022-12-24T09:28:47;94059.41;;;9.19;77.39
7768;BME280;3928;42.626;23.382;2022-12-24T09:31:14;94077.94;;;9.36;76.67
7768;BME280;3928;42.626;23.382;2022-12-24T09:33:44;94076.94;;;9.45;77.15
7768;BME280;3928;42.626;23.382;2022-12-24T09:36:13;94086.13;;;9.57;76.28
7768;BME280;3928;42.626;23.382;2022-12-24T09:38:40;94080.91;;;9.63;75.60
7768;BME280;3928;42.626;23.382;2022-12-24T09:41:12;94074.78;;;9.73;75.63
7768;BME280;3928;42.626;23.382;2022-12-24T09:43:45;94078.84;;;9.85;75.99
7768;BME280;3928;42.626;23.382;2022-12-24T09:46:16;94076.25;;;9.86;75.47
7768;BME280;3928;42.626;23.382;2022-12-24T09:48:50;94079.47;;;9.98;76.56
7768;BME280;3928;42.626;23.382;2022-12-24T09:51:25;94052.31;;;9.87;75.53
7768;BME280;3928;42.626;23.382;2022-12-24T09:53:58;94072.34;;;10.13;75.73
7768;BME280;3928;42.626;23.382;2022-12-24T09:56:29;94069.72;;;10.15;75.31
7768;BME280;3928;42.626;23.382;2022-12-24T09:58:58;94057.88;;;10.09;75.06
7768;BME280;3928;42.626;23.382;2022-12-24T10:01:28;94074.66;;;10.27;75.03
7768;BME280;3928;42.626;23.382;2022-12-24T10:03:59;94072.06;;;10.30;74.39
7768;BME280;3928;42.626;23.382;2022-12-24T10:06:32;94062.69;;;10.28;73.43
7768;BME280;3928;42.626;23.382;2022-12-24T10:09:11;94069.47;;;10.32;74.33
7768;BME280;3928;42.626;23.382;2022-12-24T10:11:48;94080.50;;;10.35;73.79
7768;BME280;3928;42.626;23.382;2022-12-24T10:14:33;94077.88;;;10.38;73.74
7768;BME280;3928;42.626;23.382;2022-12-24T10:17:16;94065.34;;;10.23;74.32
7768;BME280;3928;42.626;23.382;2022-12-24T10:19:51;94066.53;;;10.04;74.55
7768;BME280;3928;42.626;23.382;2022-12-24T10:22:25;94074.38;;;9.96;74.49
7768;BME280;3928;42.626;23.382;2022-12-24T10:25:00;94065.88;;;9.92;75.65
7768;BME280;3928;42.626;23.382;2022-12-24T10:27:34;94053.44;;;9.73;76.04
7768;BME280;3928;42.626;23.382;2022-12-24T10:30:11;94043.47;;;9.56;76.09
7768;BME280;3928;42.626;23.382;2022-12-24T10:32:40;94067.84;;;9.78;75.53
7768;BME280;3928;42.626;23.382;2022-12-24T10:35:18;94052.53;;;9.75;75.61
7768;BME280;3928;42.626;23.382;2022-12-24T10:37:48;94064.19;;;9.91;75.39
7768;BME280;3928;42.626;23.382;2022-12-24T10:40:23;94064.91;;;10.00;75.81
7768;BME280;3928;42.626;23.382;2022-12-24T10:42:52;94061.41;;;10.04;74.41
7768;BME280;3928;42.626;23.382;2022-12-24T10:45:22;94063.09;;;10.05;74.53
7768;BME280;3928;42.626;23.382;2022-12-24T10:47:54;94063.84;;;10.10;74.54
7768;BME280;3928;42.626;23.382;2022-12-24T10:50:30;94045.78;;;10.16;74.80
7768;BME280;3928;42.626;23.382;2022-12-24T10:53:04;94050.63;;;10.33;74.20
7768;BME280;3928;42.626;23.382;2022-12-24T10:55:33;94043.63;;;10.39;73.82
7768;BME280;3928;42.626;23.382;2022-12-24T10:58:01;94050.53;;;10.37;73.31
7768;BME280;3928;42.626;23.382;2022-12-24T11:00:30;94048.25;;;10.23;73.64
7768;BME280;3928;42.626;23.382;2022-12-24T11:03:21;94048.25;;;10.23;73.74
7768;BME280;3928;42.626;23.382;2022-12-24T11:06:07;94059.28;;;10.27;73.34
7768;BME280;3928;42.626;23.382;2022-12-24T11:08:35;94043.16;;;10.22;73.40
7768;BME280;3928;42.626;23.382;2022-12-24T11:11:04;94054.19;;;10.25;73.81
7768;BME280;3928;42.626;23.382;2022-12-24T11:13:35;94059.25;;;10.30;73.09
7768;BME280;3928;42.626;23.382;2022-12-24T11:16:05;94063.47;;;10.33;73.25
7768;BME280;3928;42.626;23.382;2022-12-24T11:18:35;94064.31;;;10.33;73.46
7768;BME280;3928;42.626;23.382;2022-12-24T11:21:04;94050.59;;;10.34;73.71
7768;BME280;3928;42.626;23.382;2022-12-24T11:23:31;94050.44;;;10.42;73.34
7768;BME280;3928;42.626;23.382;2022-12-24T11:25:59;94054.66;;;10.44;73.41
7768;BME280;3928;42.626;23.382;2022-12-24T11:28:28;94040.13;;;10.45;73.34
7768;BME280;3928;42.626;23.382;2022-12-24T11:31:02;94049.44;;;10.49;73.21
7768;BME280;3928;42.626;23.382;2022-12-24T11:33:30;94041.88;;;10.41;73.54
7768;BME280;3928;42.626;23.382;2022-12-24T11:36:01;94043.44;;;10.50;73.08
7768;BME280;3928;42.626;23.382;2022-12-24T11:38:32;94051.88;;;10.55;73.47
7768;BME280;3928;42.626;23.382;2022-12-24T11:41:03;94063.78;;;10.59;73.15
7768;BME280;3928;42.626;23.382;2022-12-24T11:43:36;94061.06;;;10.67;73.39
7768;BME280;3928;42.626;23.382;2022-12-24T11:46:16;94050.50;;;10.80;73.75
7768;BME280;3928;42.626;23.382;2022-12-24T11:48:43;94056.09;;;10.98;73.54
7768;BME280;3928;42.626;23.382;2022-12-24T11:51:22;94054.63;;;11.25;73.26
7768;BME280;3928;42.626;23.382;2022-12-24T11:53:57;94040.13;;;11.58;73.27
7768;BME280;3928;42.626;23.382;2022-12-24T11:56:32;94046.03;;;11.97;69.97
7768;BME280;3928;42.626;23.382;2022-12-24T11:59:07;94025.00;;;12.14;68.43
7768;BME280;3928;42.626;23.382;2022-12-24T12:01:38;94044.78;;;12.41;66.45
7768;BME280;3928;42.626;23.382;2022-12-24T12:04:12;94050.38;;;12.57;65.21
7768;BME280;3928;42.626;23.382;2022-12-24T12:06:43;94028.00;;;12.59;63.97
7768;BME280;3928;42.626;23.382;2022-12-24T12:09:19;94037.09;;;12.71;64.10
7768;BME280;3928;42.626;23.382;2022-12-24T12:11:49;94043.00;;;12.74;63.40
7768;BME280;3928;42.626;23.382;2022-12-24T12:14:20;94043.19;;;12.68;62.86
7768;BME280;3928;42.626;23.382;2022-12-24T12:16:56;94019.00;;;12.13;63.81
7768;BME280;3928;42.626;23.382;2022-12-24T12:19:31;94024.28;;;12.07;64.77
7768;BME280;3928;42.626;23.382;2022-12-24T12:22:03;94044.47;;;12.22;64.76
7768;BME280;3928;42.626;23.382;2022-12-24T12:24:37;94025.81;;;12.14;64.94
7768;BME280;3928;42.626;23.382;2022-12-24T12:27:16;94037.38;;;12.30;64.53
7768;BME280;3928;42.626;23.382;2022-12-24T12:29:49;94042.47;;;12.34;64.35
7768;BME280;3928;42.626;23.382;2022-12-24T12:32:26;94032.06;;;12.37;63.93
7768;BME280;3928;42.626;23.382;2022-12-24T12:35:01;94037.03;;;12.43;64.04
7768;BME280;3928;42.626;23.382;2022-12-24T12:37:33;94033.47;;;12.48;63.45
7768;BME280;3928;42.626;23.382;2022-12-24T12:40:03;94036.78;;;12.52;63.05
7768;BME280;3928;42.626;23.382;2022-12-24T12:42:33;94031.56;;;12.55;63.26
7768;BME280;3928;42.626;23.382;2022-12-24T12:45:13;94043.34;;;12.62;63.21
7768;BME280;3928;42.626;23.382;2022-12-24T12:47:59;94041.56;;;12.64;63.62
7768;BME280;3928;42.626;23.382;2022-12-24T12:50:34;94023.75;;;12.58;63.39
7768;BME280;3928;42.626;23.382;2022-12-24T12:53:29;94050.03;;;12.69;63.00
7768;BME280;3928;42.626;23.382;2022-12-24T12:56:05;94050.03;;;12.69;63.35
7768;BME280;3928;42.626;23.382;2022-12-24T12:58:37;94050.19;;;12.63;63.00
7768;BME280;3928;42.626;23.382;2022-12-24T13:01:08;94055.25;;;12.66;62.77
7768;BME280;3928;42.626;23.382;2022-12-24T13:09:43;94065.03;;;12.53;64.77
7768;BME280;3928;42.626;23.382;2022-12-24T13:12:39;94064.25;;;12.51;64.27
7768;BME280;3928;42.626;23.382;2022-12-24T13:18:35;94051.69;;;12.41;63.47
7768;BME280;3928;42.626;23.382;2022-12-24T13:21:04;94054.34;;;12.38;63.45
7768;BME280;3928;42.626;23.382;2022-12-24T13:23:39;94077.16;;;12.50;63.56
7768;BME280;3928;42.626;23.382;2022-12-24T13:26:10;94080.63;;;12.49;63.57
7768;BME280;3928;42.626;23.382;2022-12-24T13:28:38;94072.41;;;12.36;63.74
7768;BME280;3928;42.626;23.382;2022-12-24T13:31:24;94088.50;;;12.43;63.73
7768;BME280;3928;42.626;23.382;2022-12-24T13:33:53;94096.31;;;12.40;63.75
7768;BME280;3928;42.626;23.382;2022-12-24T13:36:21;94096.50;;;12.34;64.06
7768;BME280;3928;42.626;23.382;2022-12-24T13:38:48;94097.44;;;12.29;64.27
7768;BME280;3928;42.626;23.382;2022-12-24T13:44:27;94091.69;;;12.21;65.61
7768;BME280;3928;42.626;23.382;2022-12-24T13:47:16;94089.09;;;12.21;65.94
7768;BME280;3928;42.626;23.382;2022-12-24T13:49:48;94102.91;;;12.17;66.23